createdAt,value
2022-08-05T00:02:07.894Z,22.70
2022-08-05T00:04:43.413Z,22.70
2022-08-05T00:07:21.793Z,22.60
2022-08-05T00:10:07.302Z,22.60
2022-08-05T00:12:56.140Z,22.70
2022-08-05T00:15:55.456Z,22.70
2022-08-05T00:18:22.549Z,22.70
2022-08-05T00:20:56.034Z,22.60
2022-08-05T00:23:44.582Z,22.60
2022-08-05T00:26:20.286Z,22.60
2022-08-05T00:28:52.376Z,22.60
2022-08-05T00:31:54.222Z,22.60
2022-08-05T00:34:53.953Z,22.60
2022-08-05T00:37:14.306Z,22.50
2022-08-05T00:39:58.641Z,22.50
2022-08-05T00:42:39.817Z,22.40
2022-08-05T00:45:13.569Z,22.40
2022-08-05T00:47:56.624Z,22.40
2022-08-05T00:50:29.375Z,22.40
2022-08-05T00:53:01.550Z,22.40
2022-08-05T00:55:42.476Z,22.40
2022-08-05T00:58:19.058Z,22.30
2022-08-05T01:00:53.699Z,22.30
2022-08-05T01:03:31.053Z,22.20
2022-08-05T01:06:06.475Z,22.20
2022-08-05T01:08:47.470Z,22.20
2022-08-05T01:11:37.298Z,22.10
2022-08-05T01:14:27.216Z,22.10
2022-08-05T01:17:16.309Z,22.00
2022-08-05T01:20:23.073Z,21.90
2022-08-05T01:23:26.327Z,21.80
2022-08-05T01:26:44.322Z,21.70
2022-08-05T01:29:44.014Z,21.60
2022-08-05T01:32:23.469Z,21.50
2022-08-05T01:35:03.111Z,21.40
2022-08-05T01:37:53.133Z,21.30
2022-08-05T01:40:29.557Z,21.20
2022-08-05T01:43:03.692Z,21.10
2022-08-05T01:45:43.143Z,21.00
2022-08-05T01:48:17.433Z,20.90
2022-08-05T01:50:51.446Z,20.90
2022-08-05T01:53:58.126Z,20.80
2022-08-05T01:58:09.706Z,20.70
2022-08-05T01:59:18.299Z,20.60
2022-08-05T02:01:52.754Z,20.60
2022-08-05T02:04:31.827Z,20.50
2022-08-05T02:07:05.324Z,20.40
2022-08-05T02:09:39.061Z,20.40
2022-08-05T02:12:51.649Z,20.30
2022-08-05T02:15:33.594Z,20.20
2022-08-05T02:18:31.342Z,20.20
2022-08-05T02:21:46.615Z,20.20
2022-08-05T02:24:23.075Z,20.10
2022-08-05T02:27:10.037Z,20.10
2022-08-05T02:29:59.584Z,20.10
2022-08-05T02:32:35.086Z,20.10
2022-08-05T02:35:14.171Z,20.10
2022-08-05T02:37:53.919Z,20.10
2022-08-05T02:40:31.093Z,20.00
2022-08-05T02:43:03.600Z,20.10
2022-08-05T02:45:51.889Z,20.00
2022-08-05T02:48:29.446Z,20.00
2022-08-05T02:51:05.593Z,20.00
2022-08-05T02:53:40.914Z,20.00
2022-08-05T02:56:16.160Z,19.90
2022-08-05T02:58:52.739Z,19.90
2022-08-05T03:01:28.644Z,19.90
2022-08-05T03:04:11.759Z,19.90
2022-08-05T03:06:53.647Z,19.90
2022-08-05T03:09:37.414Z,19.90
2022-08-05T03:12:10.719Z,20.00
2022-08-05T03:14:46.109Z,20.00
2022-08-05T03:17:20.266Z,20.00
2022-08-05T03:19:58.858Z,20.00
2022-08-05T03:22:32.543Z,20.00
2022-08-05T03:25:50.875Z,20.10
2022-08-05T03:27:59.755Z,20.10
2022-08-05T03:30:33.513Z,20.10
2022-08-05T03:33:08.945Z,20.10
2022-08-05T03:35:41.878Z,20.20
2022-08-05T03:38:14.721Z,20.20
2022-08-05T03:40:48.590Z,20.30
2022-08-05T03:44:08.074Z,20.30
2022-08-05T03:46:12.738Z,20.40
2022-08-05T03:48:45.319Z,20.40
2022-08-05T03:52:38.779Z,20.50
2022-08-05T03:55:53.702Z,20.50
2022-08-05T03:57:41.328Z,20.50
2022-08-05T04:00:17.547Z,20.60
2022-08-05T04:02:58.036Z,20.70
2022-08-05T04:05:34.579Z,20.70
2022-08-05T04:08:14.667Z,20.70
2022-08-05T04:11:03.316Z,20.80
2022-08-05T04:13:51.123Z,20.80
2022-08-05T04:16:32.338Z,20.90
2022-08-05T04:19:10.557Z,20.90
2022-08-05T04:22:09.703Z,21.00
2022-08-05T04:24:34.670Z,21.10
2022-08-05T04:27:06.558Z,21.10
2022-08-05T04:29:39.666Z,21.20
2022-08-05T04:32:11.637Z,21.30
2022-08-05T04:34:43.778Z,21.30
2022-08-05T04:37:15.668Z,21.30
2022-08-05T04:39:52.842Z,21.40
2022-08-05T04:42:25.578Z,21.40
2022-08-05T04:44:57.467Z,21.50
2022-08-05T04:47:38.634Z,21.50
2022-08-05T04:50:14.797Z,21.60
2022-08-05T04:53:09.480Z,21.70
2022-08-05T04:56:14.625Z,21.70
2022-08-05T04:58:38.446Z,21.80
2022-08-05T05:01:10.368Z,21.90
2022-08-05T05:03:43.348Z,22.00
2022-08-05T05:06:35.899Z,22.00
2022-08-05T05:09:10.733Z,22.10
2022-08-05T05:11:55.534Z,22.20
2022-08-05T05:14:32.194Z,22.20
2022-08-05T05:17:07.537Z,22.30
2022-08-05T05:19:44.317Z,22.40
2022-08-05T05:22:24.576Z,22.50
2022-08-05T05:25:00.152Z,22.60
2022-08-05T05:27:45.931Z,22.60
2022-08-05T05:30:33.360Z,22.70
2022-08-05T05:33:17.049Z,22.80
2022-08-05T05:35:49.304Z,22.90
2022-08-05T05:38:22.758Z,23.00
2022-08-05T05:40:59.505Z,23.10
2022-08-05T05:43:58.461Z,23.30
2022-08-05T05:46:23.305Z,23.30
2022-08-05T05:49:00.124Z,23.40
2022-08-05T05:51:49.917Z,23.60
2022-08-05T05:54:22.784Z,23.60
2022-08-05T05:57:19.179Z,23.70
2022-08-05T05:59:51.374Z,23.80
2022-08-05T06:02:36.652Z,23.90
2022-08-05T06:05:16.607Z,24.00
2022-08-05T06:07:58.012Z,24.10
2022-08-05T06:10:44.258Z,24.20
2022-08-05T06:13:24.352Z,24.40
2022-08-05T06:16:29.754Z,24.70
2022-08-05T06:18:48.763Z,26.30
2022-08-05T06:21:37.197Z,28.70
2022-08-05T06:24:12.770Z,30.90
2022-08-05T06:26:52.385Z,32.90
2022-08-05T06:29:51.062Z,33.90
2022-08-05T06:32:25.428Z,35.30
2022-08-05T06:35:06.135Z,36.50
2022-08-05T06:37:59.034Z,37.80
2022-08-05T06:40:35.136Z,39.10
2022-08-05T06:43:51.722Z,39.80
2022-08-05T06:46:07.337Z,40.30
2022-08-05T06:48:56.557Z,40.50
2022-08-05T06:51:33.304Z,40.70
2022-08-05T06:54:05.265Z,40.60
2022-08-05T06:56:42.070Z,40.50
2022-08-05T06:59:29.512Z,40.70
2022-08-05T07:02:12.888Z,40.90
2022-08-05T07:04:46.772Z,40.90
2022-08-05T07:07:24.034Z,40.90
2022-08-05T07:10:10.275Z,40.80
2022-08-05T07:13:05.356Z,40.60
2022-08-05T07:16:00.903Z,40.40
2022-08-05T07:18:36.230Z,39.60
2022-08-05T07:21:08.148Z,38.80
2022-08-05T07:23:49.926Z,38.10
2022-08-05T07:26:25.771Z,37.60
2022-08-05T07:28:57.814Z,37.30
2022-08-05T07:31:54.195Z,37.40
2022-08-05T07:34:28.666Z,37.30
2022-08-05T07:37:00.702Z,37.00
2022-08-05T07:40:04.455Z,36.60
2022-08-05T07:42:33.647Z,36.00
2022-08-05T07:45:09.331Z,35.10
2022-08-05T07:47:42.512Z,34.80
2022-08-05T07:50:16.664Z,34.30
2022-08-05T07:52:48.748Z,34.00
2022-08-05T07:55:44.179Z,33.60
2022-08-05T07:58:54.894Z,33.40
2022-08-05T08:01:12.193Z,33.30
2022-08-05T08:03:45.071Z,33.10
2022-08-05T08:06:17.059Z,32.90
2022-08-05T08:08:51.377Z,32.90
2022-08-05T08:11:50.274Z,32.70
2022-08-05T08:14:20.953Z,32.90
2022-08-05T08:16:53.438Z,32.60
2022-08-05T08:20:10.828Z,32.70
2022-08-05T08:22:26.914Z,32.60
2022-08-05T08:25:02.895Z,32.60
2022-08-05T08:27:51.232Z,32.60
2022-08-05T08:30:33.934Z,32.60
2022-08-05T08:33:13.841Z,32.60
2022-08-05T08:35:52.912Z,32.70
2022-08-05T08:38:35.308Z,32.70
2022-08-05T08:41:14.285Z,32.50
2022-08-05T08:45:19.740Z,32.40
2022-08-05T08:46:39.372Z,32.30
2022-08-05T08:50:23.236Z,32.20
2022-08-05T08:52:30.452Z,32.40
2022-08-05T08:55:13.310Z,32.40
2022-08-05T08:57:58.445Z,32.10
2022-08-05T09:00:31.078Z,32.00
2022-08-05T09:03:06.864Z,32.10
2022-08-05T09:06:09.082Z,32.00
2022-08-05T09:08:33.682Z,31.90
2022-08-05T09:11:06.011Z,32.00
2022-08-05T09:14:01.220Z,32.10
2022-08-05T09:16:34.355Z,32.20
2022-08-05T09:19:09.295Z,32.30
2022-08-05T09:22:22.396Z,32.20
2022-08-05T09:24:38.556Z,32.00
2022-08-05T09:27:13.277Z,32.00
2022-08-05T09:30:16.469Z,32.10
2022-08-05T09:32:53.646Z,32.20
2022-08-05T09:35:27.300Z,32.30
2022-08-05T09:38:17.604Z,32.30
2022-08-05T09:40:52.465Z,32.30
2022-08-05T09:43:41.915Z,32.30
2022-08-05T09:46:35.244Z,32.20
2022-08-05T09:49:23.537Z,31.90
2022-08-05T09:52:26.998Z,31.80
2022-08-05T09:55:06.277Z,31.80
2022-08-05T09:58:01.387Z,31.60
2022-08-05T10:00:33.529Z,31.60
2022-08-05T10:03:14.189Z,31.60
2022-08-05T10:05:46.594Z,31.60
2022-08-05T10:08:37.741Z,31.60
2022-08-05T10:11:17.769Z,31.60
2022-08-05T10:13:49.875Z,31.60
2022-08-05T10:16:33.841Z,31.50
2022-08-05T10:19:10.183Z,31.40
2022-08-05T10:21:45.713Z,31.40
2022-08-05T10:24:19.709Z,31.40
2022-08-05T10:27:00.491Z,31.50
2022-08-05T10:30:41.912Z,31.60
2022-08-05T10:33:01.746Z,31.60
2022-08-05T10:35:21.126Z,31.60
2022-08-05T10:38:08.411Z,31.50
2022-08-05T10:40:49.842Z,31.40
2022-08-05T10:43:30.924Z,31.40
2022-08-05T10:46:11.903Z,31.30
2022-08-05T10:48:56.629Z,31.20
2022-08-05T10:51:57.572Z,31.20
2022-08-05T10:54:56.997Z,31.20
2022-08-05T10:57:33.850Z,31.30
2022-08-05T11:00:19.201Z,31.30
2022-08-05T11:03:24.291Z,31.30
2022-08-05T11:06:15.070Z,31.20
2022-08-05T11:09:13.057Z,31.20
2022-08-05T11:11:54.107Z,31.20
2022-08-05T11:14:57.525Z,31.20
2022-08-05T11:17:58.860Z,31.30
2022-08-05T11:20:51.114Z,31.30
2022-08-05T11:24:03.405Z,31.20
2022-08-05T11:26:38.747Z,31.20
2022-08-05T11:29:41.118Z,31.20
2022-08-05T11:32:34.798Z,31.10
2022-08-05T11:35:07.868Z,31.10
2022-08-05T11:38:29.748Z,31.20
2022-08-05T11:41:14.032Z,31.20
2022-08-05T11:44:05.410Z,31.30
2022-08-05T11:47:09.403Z,31.30
2022-08-05T11:49:34.332Z,31.30
2022-08-05T11:52:11.775Z,31.30
2022-08-05T11:54:48.525Z,31.40
2022-08-05T11:58:08.624Z,31.30
2022-08-05T12:00:28.838Z,31.30
2022-08-05T12:03:29.515Z,31.30
2022-08-05T12:06:06.602Z,31.30
2022-08-05T12:08:48.016Z,31.30
2022-08-05T12:11:40.288Z,31.20
2022-08-05T12:14:16.918Z,31.20
2022-08-05T12:16:50.081Z,31.20
2022-08-05T12:20:27.202Z,31.20
2022-08-05T12:22:29.569Z,31.30
2022-08-05T12:25:05.264Z,31.30
2022-08-05T12:27:53.407Z,31.40
2022-08-05T12:30:32.075Z,31.50
2022-08-05T12:33:26.964Z,31.60
2022-08-05T12:35:59.273Z,31.60
2022-08-05T12:38:31.573Z,31.60
2022-08-05T12:41:03.661Z,31.70
2022-08-05T12:43:35.975Z,31.80
2022-08-05T12:46:28.038Z,31.90
2022-08-05T12:49:25.639Z,31.80
2022-08-05T12:52:25.299Z,31.80
2022-08-05T12:55:15.809Z,31.80
2022-08-05T12:58:52.741Z,31.80
2022-08-05T13:02:00.102Z,31.90
2022-08-05T13:03:43.052Z,31.90
2022-08-05T13:06:18.244Z,32.00
2022-08-05T13:08:51.687Z,32.00
2022-08-05T13:12:01.920Z,32.10
2022-08-05T13:14:24.653Z,32.10
2022-08-05T13:17:31.615Z,32.10
2022-08-05T13:20:19.185Z,32.00
2022-08-05T13:22:53.962Z,32.00
2022-08-05T13:25:52.764Z,32.00
2022-08-05T13:28:18.461Z,32.00
2022-08-05T13:30:51.123Z,32.00
2022-08-05T13:34:21.944Z,32.10
2022-08-05T13:36:20.012Z,32.20
2022-08-05T13:38:52.542Z,32.30
2022-08-05T13:41:36.004Z,32.20
2022-08-05T13:44:11.638Z,32.20
2022-08-05T13:47:04.538Z,32.30
2022-08-05T13:49:37.815Z,32.20
2022-08-05T13:52:19.613Z,32.10
2022-08-05T13:55:01.372Z,32.00
2022-08-05T13:57:51.392Z,31.80
2022-08-05T14:00:27.156Z,31.70
2022-08-05T14:03:01.172Z,31.70
2022-08-05T14:06:04.635Z,31.80
2022-08-05T14:08:32.495Z,31.80
2022-08-05T14:11:20.490Z,32.00
2022-08-05T14:13:57.738Z,32.10
2022-08-05T14:16:32.228Z,32.20
2022-08-05T14:19:04.408Z,32.20
2022-08-05T14:22:09.368Z,32.30
2022-08-05T14:24:28.512Z,32.30
2022-08-05T14:27:17.419Z,32.40
2022-08-05T14:29:52.144Z,32.50
2022-08-05T14:32:26.982Z,32.60
2022-08-05T14:35:01.562Z,32.60
2022-08-05T14:37:45.574Z,32.70
2022-08-05T14:40:21.010Z,32.70
2022-08-05T14:42:56.434Z,32.60
2022-08-05T14:45:30.529Z,32.50
2022-08-05T14:48:06.037Z,32.40
2022-08-05T14:50:40.948Z,32.30
2022-08-05T14:53:15.039Z,32.40
2022-08-05T14:55:52.077Z,32.40
2022-08-05T14:58:26.697Z,32.30
2022-08-05T15:01:03.537Z,32.30
2022-08-05T15:03:39.086Z,32.30
2022-08-05T15:06:15.163Z,32.30
2022-08-05T15:08:59.673Z,32.40
2022-08-05T15:11:52.831Z,32.40
2022-08-05T15:14:34.458Z,32.20
2022-08-05T15:17:09.997Z,32.20
2022-08-05T15:20:01.051Z,32.10
2022-08-05T15:22:37.888Z,32.20
2022-08-05T15:25:11.940Z,32.20
2022-08-05T15:27:52.451Z,32.30
2022-08-05T15:30:26.632Z,32.30
2022-08-05T15:33:01.140Z,32.30
2022-08-05T15:35:36.107Z,32.30
2022-08-05T15:38:31.749Z,32.40
2022-08-05T15:41:21.973Z,32.30
2022-08-05T15:43:55.575Z,32.20
2022-08-05T15:46:27.572Z,32.20
2022-08-05T15:49:10.546Z,32.20
2022-08-05T15:52:13.000Z,32.30
2022-08-05T15:54:39.106Z,32.30
2022-08-05T15:57:11.054Z,32.40
2022-08-05T15:59:44.056Z,32.50
2022-08-05T16:02:25.285Z,32.60
2022-08-05T16:04:59.865Z,32.70
2022-08-05T16:07:32.163Z,32.70
2022-08-05T16:10:04.786Z,32.70
2022-08-05T16:12:43.882Z,32.70
2022-08-05T16:15:21.846Z,32.60
2022-08-05T16:17:57.877Z,32.50
2022-08-05T16:20:32.481Z,32.50
2022-08-05T16:23:05.097Z,32.40
2022-08-05T16:25:41.679Z,32.20
2022-08-05T16:28:14.174Z,32.10
2022-08-05T16:30:47.568Z,31.90
2022-08-05T16:33:22.245Z,31.80
2022-08-05T16:35:54.646Z,31.60
2022-08-05T16:38:29.342Z,31.60
2022-08-05T16:41:21.547Z,31.60
2022-08-05T16:43:56.312Z,31.50
2022-08-05T16:46:28.510Z,31.50
2022-08-05T16:49:02.714Z,31.50
2022-08-05T16:51:50.073Z,31.40
2022-08-05T16:54:30.217Z,31.40
2022-08-05T16:57:04.860Z,31.30
2022-08-05T17:00:01.298Z,31.20
2022-08-05T17:02:34.780Z,30.90
2022-08-05T17:05:07.337Z,30.40
2022-08-05T17:07:47.270Z,30.00
2022-08-05T17:10:30.414Z,29.70
2022-08-05T17:13:02.662Z,29.30
2022-08-05T17:15:48.905Z,28.70
2022-08-05T17:18:24.810Z,28.30
2022-08-05T17:20:59.856Z,27.80
2022-08-05T17:24:03.251Z,27.30
2022-08-05T17:26:24.250Z,27.00
2022-08-05T17:28:56.291Z,26.70
2022-08-05T17:31:41.318Z,26.50
2022-08-05T17:34:20.350Z,26.40
2022-08-05T17:37:02.281Z,26.20
2022-08-05T17:39:41.122Z,26.00
2022-08-05T17:42:18.861Z,25.80
2022-08-05T17:45:17.947Z,25.70
2022-08-05T17:47:55.839Z,25.50
2022-08-05T17:50:31.392Z,25.30
2022-08-05T17:53:05.110Z,25.10
2022-08-05T17:55:39.733Z,25.00
2022-08-05T17:58:16.241Z,24.90
2022-08-05T18:00:51.416Z,24.80
2022-08-05T18:03:58.932Z,24.60
2022-08-05T18:06:18.122Z,24.60
2022-08-05T18:09:03.778Z,24.50
2022-08-05T18:11:35.787Z,24.40
2022-08-05T18:14:13.439Z,24.40
2022-08-05T18:16:52.610Z,24.30
2022-08-05T18:19:25.967Z,24.10
2022-08-05T18:22:09.222Z,23.80
2022-08-05T18:24:45.652Z,23.50
2022-08-05T18:27:18.737Z,23.20
2022-08-05T18:29:54.668Z,22.80
2022-08-05T18:32:29.717Z,22.50
2022-08-05T18:35:01.604Z,22.30
2022-08-05T18:37:40.017Z,22.10
2022-08-05T18:40:34.233Z,22.10
2022-08-05T18:43:09.199Z,22.00
2022-08-05T18:45:48.895Z,22.00
2022-08-05T18:48:31.466Z,21.80
2022-08-05T18:52:05.934Z,21.70
2022-08-05T18:54:18.178Z,21.60
2022-08-05T18:56:50.989Z,21.60
2022-08-05T18:59:42.908Z,21.60
2022-08-05T19:02:26.633Z,21.60
2022-08-05T19:06:11.283Z,21.50
2022-08-05T19:07:56.350Z,21.50
2022-08-05T19:10:34.738Z,21.40
2022-08-05T19:13:12.222Z,21.30
2022-08-05T19:15:57.745Z,21.10
2022-08-05T19:18:32.655Z,20.90
2022-08-05T19:21:07.120Z,20.70
2022-08-05T19:24:07.616Z,20.60
2022-08-05T19:26:33.155Z,20.60
2022-08-05T19:29:06.934Z,20.50
2022-08-05T19:31:44.902Z,20.60
2022-08-05T19:34:23.565Z,20.50
2022-08-05T19:37:00.489Z,20.60
2022-08-05T19:39:45.617Z,20.50
2022-08-05T19:42:35.436Z,20.60
2022-08-05T19:45:14.379Z,20.50
2022-08-05T19:47:49.067Z,20.50
2022-08-05T19:50:27.789Z,20.50
2022-08-05T19:53:09.525Z,20.50
2022-08-05T19:56:15.165Z,20.50
2022-08-05T19:58:53.359Z,20.50
2022-08-05T20:01:28.194Z,20.50
2022-08-05T20:04:01.030Z,20.50
2022-08-05T20:06:45.868Z,20.50
2022-08-05T20:09:20.827Z,20.60
2022-08-05T20:11:54.963Z,20.60
2022-08-05T20:14:27.368Z,20.50
2022-08-05T20:17:04.973Z,20.40
2022-08-05T20:19:41.376Z,20.40
2022-08-05T20:22:14.436Z,20.20
2022-08-05T20:24:46.294Z,20.20
2022-08-05T20:27:18.366Z,20.10
2022-08-05T20:29:57.650Z,20.00
2022-08-05T20:32:30.557Z,19.90
2022-08-05T20:35:05.603Z,19.90
2022-08-05T20:38:06.771Z,19.80
2022-08-05T20:40:35.580Z,19.80
2022-08-05T20:43:10.637Z,19.80
2022-08-05T20:45:47.688Z,19.80
2022-08-05T20:48:28.778Z,19.80
2022-08-05T20:51:00.642Z,19.80
2022-08-05T20:53:40.938Z,19.80
2022-08-05T20:56:13.060Z,19.80
2022-08-05T20:58:47.378Z,19.80
2022-08-05T21:01:37.528Z,19.80
2022-08-05T21:04:10.640Z,19.80
2022-08-05T21:06:46.097Z,19.80
2022-08-05T21:09:22.907Z,19.80
2022-08-05T21:12:08.890Z,19.80
2022-08-05T21:14:43.235Z,19.90
2022-08-05T21:17:17.591Z,19.80
2022-08-05T21:19:52.163Z,19.80
2022-08-05T21:22:25.322Z,19.80
2022-08-05T21:24:57.389Z,19.80
2022-08-05T21:27:29.310Z,19.80
2022-08-05T21:30:17.493Z,19.90
2022-08-05T21:32:49.644Z,19.90
2022-08-05T21:35:29.997Z,19.80
2022-08-05T21:38:03.087Z,19.80
2022-08-05T21:40:41.469Z,19.80
2022-08-05T21:43:24.153Z,19.90
2022-08-05T21:46:00.492Z,19.80
2022-08-05T21:48:32.829Z,19.90
2022-08-05T21:51:25.326Z,19.80
2022-08-05T21:54:03.967Z,19.90
2022-08-05T21:56:36.109Z,19.80
2022-08-05T21:59:23.884Z,19.80
2022-08-05T22:01:59.514Z,19.80
2022-08-05T22:04:33.754Z,19.80
2022-08-05T22:07:06.094Z,19.70
2022-08-05T22:09:45.985Z,19.70
2022-08-05T22:12:18.463Z,19.70
2022-08-05T22:14:58.625Z,19.70
2022-08-05T22:17:31.799Z,19.70
2022-08-05T22:20:14.904Z,19.70
2022-08-05T22:23:17.128Z,19.70
2022-08-05T22:26:12.284Z,19.70
2022-08-05T22:28:49.490Z,19.60
2022-08-05T22:31:23.577Z,19.60
2022-08-05T22:34:02.221Z,19.60
2022-08-05T22:36:36.490Z,19.60
2022-08-05T22:39:10.416Z,19.60
2022-08-05T22:42:09.898Z,19.50
2022-08-05T22:44:37.740Z,19.50
2022-08-05T22:47:11.210Z,19.50
2022-08-05T22:50:17.787Z,19.50
2022-08-05T22:52:37.880Z,19.50
2022-08-05T22:55:19.571Z,19.50
2022-08-05T22:57:54.112Z,19.40
2022-08-05T23:00:26.922Z,19.40
2022-08-05T23:03:01.590Z,19.40
2022-08-05T23:05:36.418Z,19.30
2022-08-05T23:08:12.452Z,19.30
2022-08-05T23:10:46.138Z,19.30
2022-08-05T23:13:18.011Z,19.20
2022-08-05T23:15:56.971Z,19.20
2022-08-05T23:18:28.837Z,19.20
2022-08-05T23:21:02.940Z,19.20
2022-08-05T23:23:37.234Z,19.20
2022-08-05T23:26:14.706Z,19.10
2022-08-05T23:28:52.040Z,19.10
2022-08-05T23:31:28.121Z,19.10
2022-08-05T23:34:06.837Z,19.10
2022-08-05T23:36:44.698Z,19.10
2022-08-05T23:39:32.220Z,19.00
2022-08-05T23:42:13.540Z,19.00
2022-08-05T23:44:54.492Z,18.90
2022-08-05T23:47:26.520Z,18.80
2022-08-05T23:49:59.433Z,18.80
2022-08-05T23:52:36.228Z,18.80
2022-08-05T23:55:24.743Z,18.80
2022-08-05T23:58:05.632Z,18.80
